sensor_id;sensor_type;location;lat;lon;timestamp;pressure;altitude;pressure_sealevel;temperature;humidity
40994;BME280;26722;43.212;27.932;2023-02-18T00:02:09;55175.22;;;-146.72;46.81
40994;BME280;26722;43.212;27.932;2023-02-18T00:04:34;55158.31;;;-146.72;46.74
40994;BME280;26722;43.212;27.932;2023-02-18T00:07:00;55154.09;;;-146.72;46.71
40994;BME280;26722;43.212;27.932;2023-02-18T00:09:25;55170.97;;;-146.72;46.43
40994;BME280;26722;43.212;27.932;2023-02-18T00:11:51;55179.44;;;-146.72;46.25
40994;BME280;26722;43.212;27.932;2023-02-18T00:14:16;55170.97;;;-146.72;46.21
40994;BME280;26722;43.212;27.932;2023-02-18T00:16:43;55170.97;;;-146.72;45.79
40994;BME280;26722;43.212;27.932;2023-02-18T00:19:14;55151.97;;;-146.72;45.56
40994;BME280;26722;43.212;27.932;2023-02-18T00:21:40;55139.31;;;-146.72;45.22
40994;BME280;26722;43.212;27.932;2023-02-18T00:24:07;55147.75;;;-146.72;44.75
40994;BME280;26722;43.212;27.932;2023-02-18T00:26:33;55154.09;;;-146.72;44.72
40994;BME280;26722;43.212;27.932;2023-02-18T00:28:59;55154.09;;;-146.72;44.49
40994;BME280;26722;43.212;27.932;2023-02-18T00:31:27;55120.31;;;-146.72;44.50
40994;BME280;26722;43.212;27.932;2023-02-18T00:33:53;55154.09;;;-146.72;44.47
40994;BME280;26722;43.212;27.932;2023-02-18T00:36:20;55166.75;;;-146.72;44.36
40994;BME280;26722;43.212;27.932;2023-02-18T00:38:51;55156.22;;;-146.72;44.67
40994;BME280;26722;43.212;27.932;2023-02-18T00:41:17;55162.53;;;-146.72;44.70
40994;BME280;26722;43.212;27.932;2023-02-18T00:43:43;55154.09;;;-146.72;44.72
40994;BME280;26722;43.212;27.932;2023-02-18T00:46:09;55149.88;;;-146.72;44.63
40994;BME280;26722;43.212;27.932;2023-02-18T00:48:35;55154.09;;;-146.72;44.59
40994;BME280;26722;43.212;27.932;2023-02-18T00:51:02;55162.53;;;-146.72;44.28
40994;BME280;26722;43.212;27.932;2023-02-18T00:53:28;55141.44;;;-146.72;44.07
40994;BME280;26722;43.212;27.932;2023-02-18T00:55:54;55156.22;;;-146.72;43.97
40994;BME280;26722;43.212;27.932;2023-02-18T00:58:19;55166.75;;;-146.72;43.88
40994;BME280;26722;43.212;27.932;2023-02-18T01:00:45;55156.22;;;-146.72;43.95
40994;BME280;26722;43.212;27.932;2023-02-18T01:03:11;55156.22;;;-146.72;44.15
40994;BME280;26722;43.212;27.932;2023-02-18T01:05:38;55156.22;;;-146.72;44.50
40994;BME280;26722;43.212;27.932;2023-02-18T01:08:04;55162.53;;;-146.72;44.68
40994;BME280;26722;43.212;27.932;2023-02-18T01:10:30;55173.09;;;-146.72;44.54
40994;BME280;26722;43.212;27.932;2023-02-18T01:12:57;55158.31;;;-146.72;44.52
40994;BME280;26722;43.212;27.932;2023-02-18T01:15:22;55151.97;;;-146.72;44.27
40994;BME280;26722;43.212;27.932;2023-02-18T01:17:48;55164.66;;;-146.72;44.04
40994;BME280;26722;43.212;27.932;2023-02-18T01:20:14;55166.75;;;-146.72;44.18
40994;BME280;26722;43.212;27.932;2023-02-18T01:22:40;55162.53;;;-146.72;44.45
40994;BME280;26722;43.212;27.932;2023-02-18T01:25:07;55137.22;;;-146.72;44.43
40994;BME280;26722;43.212;27.932;2023-02-18T01:27:32;55151.97;;;-146.72;44.61
40994;BME280;26722;43.212;27.932;2023-02-18T01:29:58;55164.66;;;-146.72;44.71
40994;BME280;26722;43.212;27.932;2023-02-18T01:32:23;55160.44;;;-146.72;44.67
40994;BME280;26722;43.212;27.932;2023-02-18T01:34:49;55149.88;;;-146.72;44.70
40994;BME280;26722;43.212;27.932;2023-02-18T01:37:15;55181.53;;;-146.72;44.80
40994;BME280;26722;43.212;27.932;2023-02-18T01:39:40;55166.75;;;-146.72;45.18
40994;BME280;26722;43.212;27.932;2023-02-18T01:42:06;55166.75;;;-146.72;45.36
40994;BME280;26722;43.212;27.932;2023-02-18T01:44:32;55154.09;;;-146.72;45.60
40994;BME280;26722;43.212;27.932;2023-02-18T01:46:58;55154.09;;;-146.72;45.21
40994;BME280;26722;43.212;27.932;2023-02-18T01:49:31;55173.09;;;-146.72;45.10
40994;BME280;26722;43.212;27.932;2023-02-18T01:52:02;55183.66;;;-146.72;45.07
40994;BME280;26722;43.212;27.932;2023-02-18T01:54:34;55154.09;;;-146.72;45.07
40994;BME280;26722;43.212;27.932;2023-02-18T01:57:06;55162.53;;;-146.72;44.82
40994;BME280;26722;43.212;27.932;2023-02-18T01:59:38;55196.31;;;-146.72;44.50
40994;BME280;26722;43.212;27.932;2023-02-18T02:02:06;55181.53;;;-146.72;44.01
40994;BME280;26722;43.212;27.932;2023-02-18T02:04:33;55162.53;;;-146.72;43.95
40994;BME280;26722;43.212;27.932;2023-02-18T02:06:59;55149.88;;;-146.72;43.69
40994;BME280;26722;43.212;27.932;2023-02-18T02:09:26;55158.31;;;-146.72;43.81
40994;BME280;26722;43.212;27.932;2023-02-18T02:14:48;55158.31;;;-146.72;43.84
40994;BME280;26722;43.212;27.932;2023-02-18T02:28:48;55151.97;;;-146.72;43.60
40994;BME280;26722;43.212;27.932;2023-02-18T02:36:58;55168.88;;;-146.72;43.22
40994;BME280;26722;43.212;27.932;2023-02-18T02:45:17;55162.53;;;-146.72;43.01
40994;BME280;26722;43.212;27.932;2023-02-18T02:50:40;55164.66;;;-146.72;42.66
40994;BME280;26722;43.212;27.932;2023-02-18T02:53:16;55128.75;;;-146.72;42.34
40994;BME280;26722;43.212;27.932;2023-02-18T02:55:45;55154.09;;;-146.72;42.16
40994;BME280;26722;43.212;27.932;2023-02-18T02:58:15;55141.44;;;-146.72;42.14
40994;BME280;26722;43.212;27.932;2023-02-18T03:06:32;55156.22;;;-146.72;42.04
40994;BME280;26722;43.212;27.932;2023-02-18T03:12:14;55141.44;;;-146.72;42.21
40994;BME280;26722;43.212;27.932;2023-02-18T03:15:04;55145.66;;;-146.72;42.14
40994;BME280;26722;43.212;27.932;2023-02-18T03:17:56;55132.97;;;-146.72;42.24
40994;BME280;26722;43.212;27.932;2023-02-18T03:20:27;55141.44;;;-146.72;42.44
40994;BME280;26722;43.212;27.932;2023-02-18T03:22:57;55151.97;;;-146.72;42.65
40994;BME280;26722;43.212;27.932;2023-02-18T03:25:25;55158.31;;;-146.72;42.58
40994;BME280;26722;43.212;27.932;2023-02-18T03:28:13;55166.75;;;-146.72;42.64
40994;BME280;26722;43.212;27.932;2023-02-18T03:30:55;55175.22;;;-146.72;42.91
40994;BME280;26722;43.212;27.932;2023-02-18T03:33:27;55154.09;;;-146.72;42.96
40994;BME280;26722;43.212;27.932;2023-02-18T03:35:55;55160.44;;;-146.72;43.11
40994;BME280;26722;43.212;27.932;2023-02-18T03:38:32;55162.53;;;-146.72;43.21
40994;BME280;26722;43.212;27.932;2023-02-18T03:41:00;55149.88;;;-146.72;43.36
40994;BME280;26722;43.212;27.932;2023-02-18T03:43:27;55173.09;;;-146.72;43.33
40994;BME280;26722;43.212;27.932;2023-02-18T03:45:53;55149.88;;;-146.72;43.49
40994;BME280;26722;43.212;27.932;2023-02-18T03:48:18;55158.31;;;-146.72;43.53
40994;BME280;26722;43.212;27.932;2023-02-18T03:50:44;55154.09;;;-146.72;43.66
40994;BME280;26722;43.212;27.932;2023-02-18T03:53:09;55154.09;;;-146.72;43.54
40994;BME280;26722;43.212;27.932;2023-02-18T03:55:35;55164.66;;;-146.72;43.72
40994;BME280;26722;43.212;27.932;2023-02-18T03:58:00;55158.31;;;-146.72;43.69
40994;BME280;26722;43.212;27.932;2023-02-18T04:00:25;55177.31;;;-146.72;43.88
40994;BME280;26722;43.212;27.932;2023-02-18T04:02:51;55135.09;;;-146.72;43.63
40994;BME280;26722;43.212;27.932;2023-02-18T04:05:16;55183.66;;;-146.72;43.83
40994;BME280;26722;43.212;27.932;2023-02-18T04:07:42;55160.44;;;-146.72;43.96
40994;BME280;26722;43.212;27.932;2023-02-18T04:10:08;55166.75;;;-146.72;44.12
40994;BME280;26722;43.212;27.932;2023-02-18T04:12:33;55170.97;;;-146.72;44.07
40994;BME280;26722;43.212;27.932;2023-02-18T04:14:59;55168.88;;;-146.72;44.31
40994;BME280;26722;43.212;27.932;2023-02-18T04:17:25;55164.66;;;-146.72;44.59
40994;BME280;26722;43.212;27.932;2023-02-18T04:19:50;55181.53;;;-146.72;44.50
40994;BME280;26722;43.212;27.932;2023-02-18T04:22:16;55170.97;;;-146.72;44.55
40994;BME280;26722;43.212;27.932;2023-02-18T04:24:41;55166.75;;;-146.72;44.69
40994;BME280;26722;43.212;27.932;2023-02-18T04:27:07;55179.44;;;-146.72;44.57
40994;BME280;26722;43.212;27.932;2023-02-18T04:29:32;55164.66;;;-146.72;44.58
40994;BME280;26722;43.212;27.932;2023-02-18T04:31:57;55149.88;;;-146.72;44.29
40994;BME280;26722;43.212;27.932;2023-02-18T04:34:23;55166.75;;;-146.72;43.78
40994;BME280;26722;43.212;27.932;2023-02-18T04:36:48;55177.31;;;-146.72;43.52
40994;BME280;26722;43.212;27.932;2023-02-18T04:39:14;55166.75;;;-146.72;43.32
40994;BME280;26722;43.212;27.932;2023-02-18T04:41:39;55162.53;;;-146.72;43.14
40994;BME280;26722;43.212;27.932;2023-02-18T04:44:05;55141.44;;;-146.72;43.00
40994;BME280;26722;43.212;27.932;2023-02-18T04:46:31;55149.88;;;-146.72;42.97
40994;BME280;26722;43.212;27.932;2023-02-18T04:48:56;55170.97;;;-146.72;42.93
40994;BME280;26722;43.212;27.932;2023-02-18T04:51:22;55158.31;;;-146.72;42.91
40994;BME280;26722;43.212;27.932;2023-02-18T04:53:48;55149.88;;;-146.72;42.80
40994;BME280;26722;43.212;27.932;2023-02-18T04:56:13;55147.75;;;-146.72;42.73
40994;BME280;26722;43.212;27.932;2023-02-18T04:58:39;55162.53;;;-146.72;42.86
40994;BME280;26722;43.212;27.932;2023-02-18T05:01:04;55145.66;;;-146.72;42.88
40994;BME280;26722;43.212;27.932;2023-02-18T05:03:32;55162.53;;;-146.72;42.71
40994;BME280;26722;43.212;27.932;2023-02-18T05:05:58;55149.88;;;-146.72;42.89
40994;BME280;26722;43.212;27.932;2023-02-18T05:08:24;55183.66;;;-146.72;42.69
40994;BME280;26722;43.212;27.932;2023-02-18T05:10:49;55158.31;;;-146.72;42.37
40994;BME280;26722;43.212;27.932;2023-02-18T05:13:15;55166.75;;;-146.72;42.44
40994;BME280;26722;43.212;27.932;2023-02-18T05:15:40;55145.66;;;-146.72;42.36
40994;BME280;26722;43.212;27.932;2023-02-18T05:18:06;55139.31;;;-146.72;42.39
40994;BME280;26722;43.212;27.932;2023-02-18T05:20:32;55139.31;;;-146.72;42.22
40994;BME280;26722;43.212;27.932;2023-02-18T05:22:58;55141.44;;;-146.72;42.11
40994;BME280;26722;43.212;27.932;2023-02-18T05:25:23;55120.31;;;-146.72;42.03
40994;BME280;26722;43.212;27.932;2023-02-18T05:27:50;55154.09;;;-146.72;41.98
40994;BME280;26722;43.212;27.932;2023-02-18T05:30:15;55166.75;;;-146.72;41.94
40994;BME280;26722;43.212;27.932;2023-02-18T05:32:41;55149.88;;;-146.72;41.76
40994;BME280;26722;43.212;27.932;2023-02-18T05:35:06;55137.22;;;-146.72;41.64
40994;BME280;26722;43.212;27.932;2023-02-18T05:37:32;55145.66;;;-146.72;41.44
40994;BME280;26722;43.212;27.932;2023-02-18T05:39:58;55158.31;;;-146.72;41.42
40994;BME280;26722;43.212;27.932;2023-02-18T05:42:23;55137.22;;;-146.72;41.38
40994;BME280;26722;43.212;27.932;2023-02-18T05:44:49;55130.88;;;-146.72;41.24
40994;BME280;26722;43.212;27.932;2023-02-18T05:47:14;55141.44;;;-146.72;41.03
40994;BME280;26722;43.212;27.932;2023-02-18T05:49:41;55164.66;;;-146.72;41.01
40994;BME280;26722;43.212;27.932;2023-02-18T05:52:07;55132.97;;;-146.72;41.17
40994;BME280;26722;43.212;27.932;2023-02-18T05:54:37;55149.88;;;-146.72;41.04
40994;BME280;26722;43.212;27.932;2023-02-18T05:57:03;55132.97;;;-146.72;40.92
40994;BME280;26722;43.212;27.932;2023-02-18T05:59:30;55149.88;;;-146.72;40.56
40994;BME280;26722;43.212;27.932;2023-02-18T06:01:55;55151.97;;;-146.72;40.50
40994;BME280;26722;43.212;27.932;2023-02-18T06:04:21;55109.75;;;-146.72;40.59
40994;BME280;26722;43.212;27.932;2023-02-18T06:06:47;55126.66;;;-146.72;40.26
40994;BME280;26722;43.212;27.932;2023-02-18T06:09:12;55139.31;;;-146.72;40.61
40994;BME280;26722;43.212;27.932;2023-02-18T06:11:38;55128.75;;;-146.72;40.46
40994;BME280;26722;43.212;27.932;2023-02-18T06:14:04;55135.09;;;-146.72;40.60
40994;BME280;26722;43.212;27.932;2023-02-18T06:16:29;55135.09;;;-146.72;40.62
40994;BME280;26722;43.212;27.932;2023-02-18T06:18:56;55145.66;;;-146.72;40.53
40994;BME280;26722;43.212;27.932;2023-02-18T06:21:21;55145.66;;;-146.72;40.61
40994;BME280;26722;43.212;27.932;2023-02-18T06:23:46;55141.44;;;-146.72;40.62
40994;BME280;26722;43.212;27.932;2023-02-18T06:26:12;55166.75;;;-146.72;40.63
40994;BME280;26722;43.212;27.932;2023-02-18T06:28:37;55141.44;;;-146.72;40.57
40994;BME280;26722;43.212;27.932;2023-02-18T06:31:03;55151.97;;;-146.72;40.53
40994;BME280;26722;43.212;27.932;2023-02-18T06:33:28;55130.88;;;-146.72;40.54
40994;BME280;26722;43.212;27.932;2023-02-18T06:35:59;55145.66;;;-146.72;40.42
40994;BME280;26722;43.212;27.932;2023-02-18T06:38:25;55116.09;;;-146.72;40.21
40994;BME280;26722;43.212;27.932;2023-02-18T06:40:51;55132.97;;;-146.72;40.19
40994;BME280;26722;43.212;27.932;2023-02-18T06:43:17;55120.31;;;-146.72;40.05
40994;BME280;26722;43.212;27.932;2023-02-18T06:45:43;55122.44;;;-146.72;40.08
40994;BME280;26722;43.212;27.932;2023-02-18T06:48:09;55128.75;;;-146.72;40.36
40994;BME280;26722;43.212;27.932;2023-02-18T06:50:34;55126.66;;;-146.72;39.89
40994;BME280;26722;43.212;27.932;2023-02-18T06:52:59;55126.66;;;-146.72;39.95
40994;BME280;26722;43.212;27.932;2023-02-18T06:55:25;55139.31;;;-146.72;39.95
40994;BME280;26722;43.212;27.932;2023-02-18T06:57:50;55130.88;;;-146.72;39.75
40994;BME280;26722;43.212;27.932;2023-02-18T07:00:16;55109.75;;;-146.72;39.44
40994;BME280;26722;43.212;27.932;2023-02-18T07:02:42;55120.31;;;-146.72;39.54
40994;BME280;26722;43.212;27.932;2023-02-18T07:05:07;55126.66;;;-146.72;39.25
40994;BME280;26722;43.212;27.932;2023-02-18T07:07:33;55130.88;;;-146.72;39.19
40994;BME280;26722;43.212;27.932;2023-02-18T07:09:58;55124.53;;;-146.72;38.99
40994;BME280;26722;43.212;27.932;2023-02-18T07:12:24;55118.19;;;-146.72;39.02
40994;BME280;26722;43.212;27.932;2023-02-18T07:14:50;55103.44;;;-146.72;38.64
40994;BME280;26722;43.212;27.932;2023-02-18T07:17:15;55124.53;;;-146.72;39.05
40994;BME280;26722;43.212;27.932;2023-02-18T07:19:41;55099.19;;;-146.72;38.95
40994;BME280;26722;43.212;27.932;2023-02-18T07:22:06;55107.66;;;-146.72;38.49
40994;BME280;26722;43.212;27.932;2023-02-18T07:24:31;55132.97;;;-146.72;38.85
40994;BME280;26722;43.212;27.932;2023-02-18T07:26:57;55116.09;;;-146.72;38.67
40994;BME280;26722;43.212;27.932;2023-02-18T07:29:22;55126.66;;;-146.72;38.71
40994;BME280;26722;43.212;27.932;2023-02-18T07:31:48;55116.09;;;-146.72;38.81
40994;BME280;26722;43.212;27.932;2023-02-18T07:34:13;55116.09;;;-146.72;38.79
40994;BME280;26722;43.212;27.932;2023-02-18T07:36:39;55135.09;;;-146.72;38.67
40994;BME280;26722;43.212;27.932;2023-02-18T07:39:04;55111.88;;;-146.72;38.49
40994;BME280;26722;43.212;27.932;2023-02-18T07:41:30;55111.88;;;-146.72;38.45
40994;BME280;26722;43.212;27.932;2023-02-18T07:43:55;55103.44;;;-146.72;38.53
40994;BME280;26722;43.212;27.932;2023-02-18T07:46:21;55109.75;;;-146.72;38.27
40994;BME280;26722;43.212;27.932;2023-02-18T07:48:46;55086.53;;;-146.72;38.97
40994;BME280;26722;43.212;27.932;2023-02-18T07:51:12;55099.19;;;-146.72;38.72
40994;BME280;26722;43.212;27.932;2023-02-18T07:53:38;55103.44;;;-146.72;38.53
40994;BME280;26722;43.212;27.932;2023-02-18T07:56:04;55086.53;;;-146.72;38.57
40994;BME280;26722;43.212;27.932;2023-02-18T07:58:32;55109.75;;;-146.72;38.74
40994;BME280;26722;43.212;27.932;2023-02-18T08:00:58;55111.88;;;-146.72;38.54
40994;BME280;26722;43.212;27.932;2023-02-18T08:03:27;55097.09;;;-146.72;38.82
40994;BME280;26722;43.212;27.932;2023-02-18T08:05:53;55094.97;;;-146.72;38.82
40994;BME280;26722;43.212;27.932;2023-02-18T08:08:23;55075.97;;;-146.72;38.66
40994;BME280;26722;43.212;27.932;2023-02-18T08:10:50;55094.97;;;-146.72;38.76
40994;BME280;26722;43.212;27.932;2023-02-18T08:13:16;55103.44;;;-146.72;38.56
40994;BME280;26722;43.212;27.932;2023-02-18T08:15:42;55082.31;;;-146.72;38.59
40994;BME280;26722;43.212;27.932;2023-02-18T08:18:14;55090.75;;;-146.72;38.10
40994;BME280;26722;43.212;27.932;2023-02-18T08:20:40;55084.44;;;-146.72;38.13
40994;BME280;26722;43.212;27.932;2023-02-18T08:23:05;55088.66;;;-146.72;37.99
40994;BME280;26722;43.212;27.932;2023-02-18T08:25:31;55092.88;;;-146.72;37.72
40994;BME280;26722;43.212;27.932;2023-02-18T08:27:57;55082.31;;;-146.72;37.73
40994;BME280;26722;43.212;27.932;2023-02-18T08:30:22;55082.31;;;-146.72;37.35
40994;BME280;26722;43.212;27.932;2023-02-18T08:32:48;55090.75;;;-146.72;37.31
40994;BME280;26722;43.212;27.932;2023-02-18T08:35:13;55075.97;;;-146.72;36.95
40994;BME280;26722;43.212;27.932;2023-02-18T08:37:39;55059.09;;;-146.72;36.77
40994;BME280;26722;43.212;27.932;2023-02-18T08:40:05;55052.75;;;-146.72;36.60
40994;BME280;26722;43.212;27.932;2023-02-18T08:42:31;55071.75;;;-146.72;36.72
40994;BME280;26722;43.212;27.932;2023-02-18T08:44:56;55065.41;;;-146.72;36.50
40994;BME280;26722;43.212;27.932;2023-02-18T08:47:22;55054.88;;;-146.72;36.40
40994;BME280;26722;43.212;27.932;2023-02-18T08:49:47;55071.75;;;-146.72;36.24
40994;BME280;26722;43.212;27.932;2023-02-18T08:52:13;55046.41;;;-146.72;36.32
40994;BME280;26722;43.212;27.932;2023-02-18T08:54:38;55044.31;;;-146.72;36.21
40994;BME280;26722;43.212;27.932;2023-02-18T08:57:04;55059.09;;;-146.72;36.18
40994;BME280;26722;43.212;27.932;2023-02-18T08:59:29;55040.09;;;-146.72;36.00
40994;BME280;26722;43.212;27.932;2023-02-18T09:01:55;55048.53;;;-146.72;35.77
40994;BME280;26722;43.212;27.932;2023-02-18T09:04:20;55048.53;;;-146.72;35.52
40994;BME280;26722;43.212;27.932;2023-02-18T09:06:46;55046.41;;;-146.72;35.58
40994;BME280;26722;43.212;27.932;2023-02-18T09:09:12;55027.41;;;-146.72;35.15
40994;BME280;26722;43.212;27.932;2023-02-18T09:11:38;55027.41;;;-146.72;34.63
40994;BME280;26722;43.212;27.932;2023-02-18T09:14:04;55035.88;;;-146.72;34.03
40994;BME280;26722;43.212;27.932;2023-02-18T09:16:29;55040.09;;;-146.72;33.70
40994;BME280;26722;43.212;27.932;2023-02-18T09:18:55;55048.53;;;-146.72;33.29
40994;BME280;26722;43.212;27.932;2023-02-18T09:21:21;55048.53;;;-146.72;33.18
40994;BME280;26722;43.212;27.932;2023-02-18T09:23:48;55023.19;;;-146.72;32.94
40994;BME280;26722;43.212;27.932;2023-02-18T09:26:15;55023.19;;;-146.72;32.62
40994;BME280;26722;43.212;27.932;2023-02-18T09:28:41;55023.19;;;-146.72;32.45
40994;BME280;26722;43.212;27.932;2023-02-18T09:31:12;55002.09;;;-146.72;32.49
40994;BME280;26722;43.212;27.932;2023-02-18T09:33:40;55023.19;;;-146.72;32.43
40994;BME280;26722;43.212;27.932;2023-02-18T09:36:07;55012.63;;;-146.72;32.28
40994;BME280;26722;43.212;27.932;2023-02-18T09:38:33;55033.75;;;-146.72;32.10
40994;BME280;26722;43.212;27.932;2023-02-18T09:41:02;55014.75;;;-146.72;32.10
40994;BME280;26722;43.212;27.932;2023-02-18T09:43:32;54997.88;;;-146.72;31.81
40994;BME280;26722;43.212;27.932;2023-02-18T09:46:00;55012.63;;;-146.72;31.47
40994;BME280;26722;43.212;27.932;2023-02-18T09:48:30;55023.19;;;-146.72;31.20
40994;BME280;26722;43.212;27.932;2023-02-18T09:50:57;55016.88;;;-146.72;31.24
40994;BME280;26722;43.212;27.932;2023-02-18T09:53:23;54997.88;;;-146.72;31.24
40994;BME280;26722;43.212;27.932;2023-02-18T09:55:54;55006.31;;;-146.72;31.09
40994;BME280;26722;43.212;27.932;2023-02-18T09:58:28;55040.09;;;-146.72;31.19
40994;BME280;26722;43.212;27.932;2023-02-18T10:01:09;55018.97;;;-146.72;31.30
40994;BME280;26722;43.212;27.932;2023-02-18T10:03:35;55025.31;;;-146.72;30.99
40994;BME280;26722;43.212;27.932;2023-02-18T10:06:03;55006.31;;;-146.72;31.21
40994;BME280;26722;43.212;27.932;2023-02-18T10:08:35;55002.09;;;-146.72;31.16
40994;BME280;26722;43.212;27.932;2023-02-18T10:11:03;55023.19;;;-146.72;31.11
40994;BME280;26722;43.212;27.932;2023-02-18T10:13:31;55031.66;;;-146.72;30.96
40994;BME280;26722;43.212;27.932;2023-02-18T10:15:57;55023.19;;;-146.72;31.07
40994;BME280;26722;43.212;27.932;2023-02-18T10:23:33;55010.53;;;-146.72;31.18
40994;BME280;26722;43.212;27.932;2023-02-18T10:26:05;54997.88;;;-146.72;31.00
40994;BME280;26722;43.212;27.932;2023-02-18T10:28:33;54997.88;;;-146.72;31.12
40994;BME280;26722;43.212;27.932;2023-02-18T10:31:04;55014.75;;;-146.72;30.99
40994;BME280;26722;43.212;27.932;2023-02-18T10:33:36;55014.75;;;-146.72;31.09
40994;BME280;26722;43.212;27.932;2023-02-18T10:36:23;54999.97;;;-146.72;31.08
40994;BME280;26722;43.212;27.932;2023-02-18T10:41:29;55006.31;;;-146.72;31.17
40994;BME280;26722;43.212;27.932;2023-02-18T10:44:17;54993.63;;;-146.72;31.14
40994;BME280;26722;43.212;27.932;2023-02-18T10:49:54;54980.97;;;-146.72;31.48
40994;BME280;26722;43.212;27.932;2023-02-18T10:52:22;55010.53;;;-146.72;31.59
40994;BME280;26722;43.212;27.932;2023-02-18T10:55:05;55004.19;;;-146.72;31.67
40994;BME280;26722;43.212;27.932;2023-02-18T10:57:31;55002.09;;;-146.72;31.71
40994;BME280;26722;43.212;27.932;2023-02-18T11:00:32;54997.88;;;-146.72;31.79
40994;BME280;26722;43.212;27.932;2023-02-18T11:03:18;54993.63;;;-146.72;31.81
40994;BME280;26722;43.212;27.932;2023-02-18T11:05:46;54987.31;;;-146.72;31.79
40994;BME280;26722;43.212;27.932;2023-02-18T11:08:24;54972.53;;;-146.72;31.93
40994;BME280;26722;43.212;27.932;2023-02-18T11:10:51;54978.88;;;-146.72;31.83
40994;BME280;26722;43.212;27.932;2023-02-18T11:13:28;54976.75;;;-146.72;31.91
40994;BME280;26722;43.212;27.932;2023-02-18T11:16:00;54980.97;;;-146.72;32.03
40994;BME280;26722;43.212;27.932;2023-02-18T11:18:43;54985.19;;;-146.72;31.90
40994;BME280;26722;43.212;27.932;2023-02-18T11:21:25;54989.41;;;-146.72;31.91
40994;BME280;26722;43.212;27.932;2023-02-18T11:23:54;54972.53;;;-146.72;32.21
40994;BME280;26722;43.212;27.932;2023-02-18T11:26:28;54987.31;;;-146.72;32.80
40994;BME280;26722;43.212;27.932;2023-02-18T11:29:06;54991.53;;;-146.72;33.32
40994;BME280;26722;43.212;27.932;2023-02-18T11:31:42;54989.41;;;-146.72;33.56
40994;BME280;26722;43.212;27.932;2023-02-18T11:34:19;54985.19;;;-146.72;33.60
40994;BME280;26722;43.212;27.932;2023-02-18T11:36:46;54987.31;;;-146.72;33.62
40994;BME280;26722;43.212;27.932;2023-02-18T11:39:21;54976.75;;;-146.72;33.33
40994;BME280;26722;43.212;27.932;2023-02-18T11:42:18;54989.41;;;-146.72;33.62
40994;BME280;26722;43.212;27.932;2023-02-18T11:44:54;54980.97;;;-146.72;33.53
40994;BME280;26722;43.212;27.932;2023-02-18T11:52:38;54968.31;;;-146.72;33.57
40994;BME280;26722;43.212;27.932;2023-02-18T11:57:36;54983.09;;;-146.72;33.35
40994;BME280;26722;43.212;27.932;2023-02-18T12:00:05;54985.19;;;-146.72;33.28
40994;BME280;26722;43.212;27.932;2023-02-18T12:02:40;54974.63;;;-146.72;33.23
40994;BME280;26722;43.212;27.932;2023-02-18T12:05:24;54989.41;;;-146.72;33.36
40994;BME280;26722;43.212;27.932;2023-02-18T12:08:04;54983.09;;;-146.72;33.30
40994;BME280;26722;43.212;27.932;2023-02-18T12:10:37;54985.19;;;-146.72;33.44
40994;BME280;26722;43.212;27.932;2023-02-18T12:15:53;54976.75;;;-146.72;33.40
40994;BME280;26722;43.212;27.932;2023-02-18T12:24:00;54974.63;;;-146.72;33.63
40994;BME280;26722;43.212;27.932;2023-02-18T12:32:17;54974.63;;;-146.72;33.58
40994;BME280;26722;43.212;27.932;2023-02-18T12:37:40;54959.88;;;-146.72;33.47
40994;BME280;26722;43.212;27.932;2023-02-18T12:40:44;54959.88;;;-146.72;33.51
40994;BME280;26722;43.212;27.932;2023-02-18T12:43:21;54966.19;;;-146.72;33.68
40994;BME280;26722;43.212;27.932;2023-02-18T13:00:34;54976.75;;;-146.72;34.56
40994;BME280;26722;43.212;27.932;2023-02-18T13:06:05;54978.88;;;-146.72;34.78
40994;BME280;26722;43.212;27.932;2023-02-18T13:11:37;54983.09;;;-146.72;35.16
40994;BME280;26722;43.212;27.932;2023-02-18T13:14:19;54985.19;;;-146.72;35.25
40994;BME280;26722;43.212;27.932;2023-02-18T13:16:48;54976.75;;;-146.72;35.13
40994;BME280;26722;43.212;27.932;2023-02-18T13:21:52;54978.88;;;-146.72;34.98
40994;BME280;26722;43.212;27.932;2023-02-18T13:24:37;54980.97;;;-146.72;35.01
40994;BME280;26722;43.212;27.932;2023-02-18T13:35:41;54983.09;;;-146.72;35.35
40994;BME280;26722;43.212;27.932;2023-02-18T13:41:37;54989.41;;;-146.72;35.61
40994;BME280;26722;43.212;27.932;2023-02-18T13:46:56;54985.19;;;-146.72;35.72
40994;BME280;26722;43.212;27.932;2023-02-18T13:49:31;54989.41;;;-146.72;35.82
40994;BME280;26722;43.212;27.932;2023-02-18T13:51:57;54972.53;;;-146.72;36.00
40994;BME280;26722;43.212;27.932;2023-02-18T13:54:28;54987.31;;;-146.72;36.08
40994;BME280;26722;43.212;27.932;2023-02-18T13:57:00;54976.75;;;-146.72;36.03
40994;BME280;26722;43.212;27.932;2023-02-18T13:59:37;54989.41;;;-146.72;36.13
40994;BME280;26722;43.212;27.932;2023-02-18T14:02:33;54987.31;;;-146.72;36.17
40994;BME280;26722;43.212;27.932;2023-02-18T14:25:54;54997.88;;;-146.72;37.03
40994;BME280;26722;43.212;27.932;2023-02-18T14:50:15;54995.75;;;-146.72;37.61
40994;BME280;26722;43.212;27.932;2023-02-18T14:52:48;54997.88;;;-146.72;37.45
40994;BME280;26722;43.212;27.932;2023-02-18T14:55:32;55004.19;;;-146.72;37.62
40994;BME280;26722;43.212;27.932;2023-02-18T14:58:01;54997.88;;;-146.72;37.69
40994;BME280;26722;43.212;27.932;2023-02-18T15:00:29;54989.41;;;-146.72;37.77
40994;BME280;26722;43.212;27.932;2023-02-18T15:02:59;55004.19;;;-146.72;37.83
40994;BME280;26722;43.212;27.932;2023-02-18T15:05:28;55016.88;;;-146.72;37.77
40994;BME280;26722;43.212;27.932;2023-02-18T15:10:20;55018.97;;;-146.72;38.07
40994;BME280;26722;43.212;27.932;2023-02-18T15:12:46;54995.75;;;-146.72;38.16
40994;BME280;26722;43.212;27.932;2023-02-18T15:15:14;55010.53;;;-146.72;38.28